Hewittville, New York
Current Conditions -  °F | °C
As of 12:53 PM on Monday 24 Nov 2014 (Local Time) from KMSS Reporting Station
Broken Clouds Broken Clouds  
Wind Chill: 20°   Ceiling: 9000
Heat Index: 20°   Visibility: 10mi
Dew Point: 11°   Wind: 26mph
Humidity: 56%   Direction: 190°S
Pressure: 29.28"   Gusts: 36mph
Location:  44.7612°N, 74.9585°W
Report Text: KMSS 241753Z AUTO 19023G31KT 10SM FEW060 BKN090 20/11 A2928 RMK AO2 PK WND 21038/1659 SLP918 60003 T02000111 10206 20117 56025
Loading
Personal Weather Stations






























Interactive Weather Map New forecast layout! Learn more

10-Day Weather Forecast

Advertisements
Track Severe Weather on mobile